Terminal Aerodrome Forecast
Issued by NWS Jackson, MS

Home | Current Version | Previous Version | Text Only | Print | Product List | Glossary On
Versions: 1 2 3 4 5 6 7 8 9 10 11 12 13
000
FTUS44 KMEG 281720
TAFTUP
TAF
KTUP 281720Z 2818/2918 17009KT P6SM SCT030 BKN070
     FM282300 18008KT P6SM VCTS BKN030CB OVC100
     FM290200 17004KT P6SM SCT250
      TEMPO 2910/2912 5SM BR FEW006
     FM291400 24004KT P6SM SCT200=

USA.gov is the U.S. government's official web portal to all federal, state and local government web resources and services.